Accueil
METAR-TAF:

METAR-TAF

Aéroports :

Buochs, Suisse

latitude: 46-58-28N, longitude: 8-23-49E, altitude: 449 m

Observation

Le bulletin a été fait il y a 32 minutes, à 00:50 UTC
Vent 2 kt de direction variable
Température 11°C
Humidité 87%
Pression 1015 hPa
Visibilité 10 km ou plus
Nuages fragmentés à une hauteur de 11000 ft
Nuages fragmentés à une hauteur de 14000 ft

METAR: LSZC 210050Z AUTO VRB02KT 9999 BKN110 BKN140 11/09 Q1015

Heure: 03:22 (01:22 UTC)


TAF: absent

Observations et prévisions météorologiques de plus de 4000 aéroports (messages METAR et TAF).

Les stations disponibles sont représentées par des disques jaunes et rouges sur la carte.

Passer la souris dessus pour voir le nom de la station.

Cliquer dessus pour voir les observations et prévisions météorologiques.

Pour changer de carte: cliquez sur les boutons verts avec une croix noire pour zoomer, sur le bouton vert avec un tiret pour effectuer un zoom arrière, ou sur les flèches vertes pour les cartes adjacentes.


METAR-TAF: